createdAt,value
2023-04-09T00:00:45.473Z,52.33
2023-04-09T00:03:15.191Z,52.35
2023-04-09T00:05:43.313Z,52.30
2023-04-09T00:08:11.264Z,52.29
2023-04-09T00:10:39.581Z,52.28
2023-04-09T00:13:07.591Z,52.35
2023-04-09T00:15:36.246Z,52.26
2023-04-09T00:18:04.637Z,52.27
2023-04-09T00:20:34.215Z,52.19
2023-04-09T00:23:02.242Z,52.14
2023-04-09T00:25:30.549Z,52.20
2023-04-09T00:27:59.031Z,52.51
2023-04-09T00:30:29.855Z,52.75
2023-04-09T00:32:58.576Z,52.92
2023-04-09T00:35:26.575Z,52.98
2023-04-09T00:37:56.036Z,53.00
2023-04-09T00:40:24.379Z,53.26
2023-04-09T00:42:52.455Z,53.38
2023-04-09T00:45:20.417Z,53.28
2023-04-09T00:47:48.746Z,53.08
2023-04-09T00:50:17.750Z,53.06
2023-04-09T00:52:46.386Z,52.76
2023-04-09T00:55:16.807Z,52.50
2023-04-09T00:57:44.850Z,52.45
2023-04-09T01:00:14.128Z,52.97
2023-04-09T01:02:44.788Z,53.16
2023-04-09T01:05:14.086Z,53.11
2023-04-09T01:07:55.673Z,53.54
2023-04-09T01:10:34.680Z,54.05
2023-04-09T01:13:09.761Z,54.50
2023-04-09T01:15:41.426Z,54.79
2023-04-09T01:18:16.665Z,55.22
2023-04-09T01:20:50.934Z,54.51
2023-04-09T01:23:28.722Z,54.56
2023-04-09T01:26:06.701Z,53.98
2023-04-09T01:28:42.797Z,53.90
2023-04-09T01:31:14.489Z,53.56
2023-04-09T01:33:43.789Z,53.26
2023-04-09T01:36:12.733Z,53.09
2023-04-09T01:38:42.380Z,53.04
2023-04-09T01:41:13.554Z,52.99
2023-04-09T01:43:44.272Z,53.06
2023-04-09T01:46:13.391Z,52.85
2023-04-09T01:48:42.011Z,52.57
2023-04-09T01:51:10.294Z,52.56
2023-04-09T01:53:38.472Z,52.43
2023-04-09T01:56:06.762Z,52.54
2023-04-09T01:58:35.959Z,52.87
2023-04-09T02:01:11.994Z,52.73
2023-04-09T02:03:47.477Z,53.03
2023-04-09T02:06:18.448Z,53.25
2023-04-09T02:08:48.758Z,53.51
2023-04-09T02:11:17.492Z,53.94
2023-04-09T02:13:47.089Z,53.44
2023-04-09T02:16:17.218Z,53.47
2023-04-09T02:18:45.599Z,52.99
2023-04-09T02:21:13.902Z,52.75
2023-04-09T02:23:42.279Z,52.65
2023-04-09T02:26:10.278Z,52.69
2023-04-09T02:28:38.367Z,53.01
2023-04-09T02:31:07.106Z,53.38
2023-04-09T02:33:36.569Z,53.40
2023-04-09T02:36:04.794Z,53.19
2023-04-09T02:38:33.157Z,53.28
2023-04-09T02:41:01.126Z,53.48
2023-04-09T02:43:29.095Z,53.79
2023-04-09T02:45:57.392Z,53.65
2023-04-09T02:48:25.604Z,53.59
2023-04-09T02:50:56.127Z,53.56
2023-04-09T02:53:24.410Z,53.15
2023-04-09T02:55:52.753Z,53.19
2023-04-09T02:58:20.920Z,53.15
2023-04-09T03:00:50.097Z,52.97
2023-04-09T03:03:18.371Z,52.84
2023-04-09T03:05:46.573Z,52.92
2023-04-09T03:08:16.348Z,52.92
2023-04-09T03:10:44.514Z,53.03
2023-04-09T03:13:12.481Z,53.23
2023-04-09T03:15:41.476Z,53.22
2023-04-09T03:18:09.683Z,53.03
2023-04-09T03:20:39.023Z,53.16
2023-04-09T03:23:07.688Z,53.71
2023-04-09T03:25:37.395Z,54.11
2023-04-09T03:28:09.724Z,54.35
2023-04-09T03:30:38.693Z,54.39
2023-04-09T03:33:07.075Z,54.11
2023-04-09T03:35:36.248Z,53.79
2023-04-09T03:38:04.253Z,54.04
2023-04-09T03:40:33.565Z,53.55
2023-04-09T03:43:04.249Z,53.03
2023-04-09T03:45:32.806Z,52.97
2023-04-09T03:48:02.650Z,52.94
2023-04-09T03:50:30.714Z,52.79
2023-04-09T03:52:58.811Z,52.59
2023-04-09T03:55:28.142Z,52.49
2023-04-09T03:57:56.821Z,52.76
2023-04-09T04:00:28.986Z,52.83
2023-04-09T04:03:03.485Z,53.04
2023-04-09T04:05:34.926Z,53.40
2023-04-09T04:08:04.183Z,53.60
2023-04-09T04:10:33.601Z,53.65
2023-04-09T04:13:02.397Z,54.19
2023-04-09T04:15:32.344Z,54.37
2023-04-09T04:18:00.365Z,53.79
2023-04-09T04:20:29.866Z,53.90
2023-04-09T04:22:58.632Z,53.57
2023-04-09T04:25:27.067Z,52.51
2023-04-09T04:27:56.278Z,52.91
2023-04-09T04:30:25.370Z,53.23
2023-04-09T04:32:55.707Z,53.44
2023-04-09T04:35:24.234Z,53.05
2023-04-09T04:37:54.192Z,53.34
2023-04-09T04:40:22.404Z,53.48
2023-04-09T04:42:52.646Z,53.30
2023-04-09T04:45:21.012Z,53.41
2023-04-09T04:47:49.311Z,52.82
2023-04-09T04:50:18.744Z,52.90
2023-04-09T04:52:50.199Z,53.28
2023-04-09T04:55:18.624Z,53.33
2023-04-09T04:57:46.853Z,53.38
2023-04-09T05:00:15.978Z,54.16
2023-04-09T05:02:44.552Z,53.63
2023-04-09T05:05:13.356Z,53.96
2023-04-09T05:07:43.483Z,55.81
2023-04-09T05:10:11.708Z,54.88
2023-04-09T05:12:40.096Z,53.53
2023-04-09T05:15:09.343Z,55.65
2023-04-09T05:17:37.840Z,54.44
2023-04-09T05:20:07.037Z,53.93
2023-04-09T05:22:36.281Z,53.94
2023-04-09T05:25:07.359Z,53.94
2023-04-09T05:27:37.403Z,53.87
2023-04-09T05:30:06.525Z,53.45
2023-04-09T05:32:34.659Z,54.64
2023-04-09T05:35:03.172Z,54.29
2023-04-09T05:37:31.555Z,54.97
2023-04-09T05:39:59.646Z,54.12
2023-04-09T05:42:29.471Z,54.13
2023-04-09T05:44:58.638Z,53.98
2023-04-09T05:47:26.741Z,54.77
2023-04-09T05:49:57.058Z,55.47
2023-04-09T05:52:25.110Z,55.35
2023-04-09T05:54:53.312Z,55.62
2023-04-09T05:57:22.180Z,55.31
2023-04-09T05:59:54.063Z,55.31
2023-04-09T06:02:22.914Z,55.06
2023-04-09T06:04:51.432Z,55.34
2023-04-09T06:07:19.463Z,55.14
2023-04-09T06:09:47.709Z,55.21
2023-04-09T06:12:15.974Z,55.52
2023-04-09T06:14:43.991Z,55.37
2023-04-09T06:17:13.612Z,55.32
2023-04-09T06:19:41.812Z,55.18
2023-04-09T06:22:11.050Z,55.03
2023-04-09T06:24:39.269Z,54.80
2023-04-09T06:27:07.888Z,55.25
2023-04-09T06:29:35.886Z,55.55
2023-04-09T06:32:05.807Z,55.19
2023-04-09T06:34:35.354Z,55.00
2023-04-09T06:37:03.716Z,55.23
2023-04-09T06:39:33.017Z,55.14
2023-04-09T06:42:01.193Z,55.27
2023-04-09T06:44:32.364Z,54.96
2023-04-09T06:47:00.337Z,54.84
2023-04-09T06:49:28.651Z,54.85
2023-04-09T06:51:58.823Z,54.41
2023-04-09T06:54:26.852Z,53.96
2023-04-09T06:56:55.383Z,54.77
2023-04-09T06:59:23.416Z,55.03
2023-04-09T07:01:54.033Z,54.76
2023-04-09T07:04:22.993Z,54.49
2023-04-09T07:06:51.609Z,54.61
2023-04-09T07:09:20.940Z,54.64
2023-04-09T07:11:49.063Z,54.70
2023-04-09T07:14:16.978Z,53.62
2023-04-09T07:16:46.444Z,54.08
2023-04-09T07:19:14.652Z,53.30
2023-04-09T07:21:42.638Z,53.61
2023-04-09T07:24:10.840Z,53.50
2023-04-09T07:26:40.411Z,53.07
2023-04-09T07:29:08.490Z,53.47
2023-04-09T07:31:36.696Z,53.28
2023-04-09T07:34:05.008Z,53.32
2023-04-09T07:36:32.960Z,53.36
2023-04-09T07:39:03.168Z,53.15
2023-04-09T07:41:31.629Z,53.13
2023-04-09T07:44:03.343Z,52.81
2023-04-09T07:46:31.562Z,52.03
2023-04-09T07:48:59.619Z,52.23
2023-04-09T07:51:27.762Z,52.28
2023-04-09T07:53:56.021Z,52.07
2023-04-09T07:56:24.080Z,51.48
2023-04-09T07:58:52.255Z,51.88
2023-04-09T08:01:24.709Z,51.62
2023-04-09T08:03:53.137Z,51.57
2023-04-09T08:06:22.757Z,51.20
2023-04-09T08:08:50.930Z,50.15
2023-04-09T08:11:25.108Z,49.77
2023-04-09T08:13:53.110Z,49.99
2023-04-09T08:16:24.417Z,50.75
2023-04-09T08:18:52.838Z,49.68
2023-04-09T08:21:21.599Z,50.57
2023-04-09T08:23:49.582Z,49.70
2023-04-09T08:26:17.911Z,49.54
2023-04-09T08:28:46.571Z,50.40
2023-04-09T08:31:15.734Z,50.12
2023-04-09T08:33:45.190Z,50.28
2023-04-09T08:36:13.606Z,49.68
2023-04-09T08:38:42.100Z,49.98
2023-04-09T08:41:18.702Z,49.74
2023-04-09T08:46:21.417Z,49.75
2023-04-09T08:48:52.622Z,49.61
2023-04-09T08:51:22.517Z,48.93
2023-04-09T08:53:56.655Z,49.58
2023-04-09T08:56:26.207Z,49.17
2023-04-09T08:58:57.759Z,49.16
2023-04-09T09:01:27.863Z,49.02
2023-04-09T09:04:01.549Z,48.59
2023-04-09T09:06:33.072Z,48.73
2023-04-09T09:09:05.775Z,48.72
2023-04-09T09:11:34.380Z,48.43
2023-04-09T09:14:03.804Z,48.42
2023-04-09T09:16:33.360Z,47.87
2023-04-09T09:19:04.049Z,47.33
2023-04-09T09:21:33.393Z,46.73
2023-04-09T09:24:01.401Z,47.26
2023-04-09T09:26:31.679Z,47.53
2023-04-09T09:29:05.805Z,47.33
2023-04-09T09:31:49.264Z,47.11
2023-04-09T09:34:19.881Z,44.99
2023-04-09T09:36:48.178Z,46.55
2023-04-09T09:39:18.013Z,46.89
2023-04-09T09:41:48.823Z,46.57
2023-04-09T09:44:34.046Z,46.97
2023-04-09T09:47:04.940Z,43.69
2023-04-09T09:49:34.308Z,44.70
2023-04-09T09:52:06.705Z,45.85
2023-04-09T09:54:41.749Z,46.71
2023-04-09T09:57:13.697Z,45.82
2023-04-09T09:59:44.910Z,46.31
2023-04-09T10:02:19.749Z,45.53
2023-04-09T10:04:50.830Z,45.20
2023-04-09T10:07:20.317Z,45.51
2023-04-09T10:09:50.998Z,45.51
2023-04-09T10:12:20.295Z,45.78
2023-04-09T10:14:49.043Z,45.71
2023-04-09T10:17:17.485Z,45.07
2023-04-09T10:19:53.597Z,45.40
2023-04-09T10:22:24.488Z,44.37
2023-04-09T10:24:53.409Z,44.44
2023-04-09T10:27:21.815Z,45.19
2023-04-09T10:29:51.953Z,44.68
2023-04-09T10:32:22.407Z,44.72
2023-04-09T10:34:52.199Z,44.84
2023-04-09T10:37:23.666Z,42.96
2023-04-09T10:39:53.471Z,42.70
2023-04-09T10:42:24.829Z,43.82
2023-04-09T10:45:07.336Z,44.08
2023-04-09T10:47:36.739Z,42.86
2023-04-09T10:50:21.571Z,44.69
2023-04-09T10:52:54.071Z,40.59
2023-04-09T10:55:35.237Z,41.79
2023-04-09T10:58:04.446Z,39.74
2023-04-09T11:00:35.340Z,43.71
2023-04-09T11:03:21.726Z,43.34
2023-04-09T11:06:00.905Z,40.58
2023-04-09T11:08:33.053Z,42.85
2023-04-09T11:11:02.466Z,43.58
2023-04-09T11:13:32.491Z,43.00
2023-04-09T11:16:01.480Z,43.22
2023-04-09T11:18:33.938Z,42.99
2023-04-09T11:21:04.605Z,42.02
2023-04-09T11:23:33.912Z,42.62
2023-04-09T11:26:02.761Z,42.78
2023-04-09T11:28:30.874Z,41.82
2023-04-09T11:30:59.734Z,42.52
2023-04-09T11:33:34.027Z,41.09
2023-04-09T11:36:05.754Z,40.33
2023-04-09T11:38:34.122Z,42.49
2023-04-09T11:41:03.037Z,42.40
2023-04-09T11:43:31.450Z,41.85
2023-04-09T11:46:00.592Z,41.69
2023-04-09T11:48:29.068Z,41.81
2023-04-09T11:51:00.593Z,41.51
2023-04-09T11:53:32.364Z,41.45
2023-04-09T11:56:00.779Z,39.18
2023-04-09T11:58:29.409Z,41.04
2023-04-09T12:01:00.157Z,41.13
2023-04-09T12:03:30.923Z,39.60
2023-04-09T12:06:01.908Z,41.34
2023-04-09T12:08:34.619Z,39.86
2023-04-09T12:11:10.605Z,40.16
2023-04-09T12:13:42.954Z,37.91
2023-04-09T12:16:11.655Z,40.61
2023-04-09T12:18:40.658Z,40.29
2023-04-09T12:21:08.734Z,40.50
2023-04-09T12:23:38.267Z,39.95
2023-04-09T12:26:06.619Z,39.95
2023-04-09T12:28:34.644Z,39.69
2023-04-09T12:31:03.589Z,40.18
2023-04-09T12:33:32.430Z,40.34
2023-04-09T12:36:00.762Z,40.90
2023-04-09T12:38:28.829Z,40.39
2023-04-09T12:40:58.483Z,40.60
2023-04-09T12:43:26.570Z,40.58
2023-04-09T12:45:54.592Z,40.21
2023-04-09T12:48:23.118Z,39.57
2023-04-09T12:50:51.253Z,39.88
2023-04-09T12:53:20.034Z,40.86
2023-04-09T12:55:48.448Z,41.01
2023-04-09T12:58:17.879Z,40.47
2023-04-09T13:00:45.928Z,40.29
2023-04-09T13:03:16.715Z,40.86
2023-04-09T13:05:44.998Z,40.67
2023-04-09T13:08:13.064Z,40.36
2023-04-09T13:10:41.497Z,39.53
2023-04-09T13:13:12.347Z,38.08
2023-04-09T13:15:43.569Z,39.34
2023-04-09T13:18:12.797Z,38.70
2023-04-09T13:20:41.052Z,38.56
2023-04-09T13:23:09.172Z,39.32
2023-04-09T13:25:37.444Z,37.69
2023-04-09T13:28:05.773Z,38.88
2023-04-09T13:30:34.002Z,38.81
2023-04-09T13:33:03.751Z,38.63
2023-04-09T13:35:31.950Z,38.40
2023-04-09T13:38:00.892Z,38.43
2023-04-09T13:40:29.257Z,39.31
2023-04-09T13:42:57.266Z,39.33
2023-04-09T13:45:25.362Z,39.15
2023-04-09T13:47:53.962Z,38.98
2023-04-09T13:50:23.396Z,38.59
2023-04-09T13:52:51.406Z,38.54
2023-04-09T13:55:19.867Z,39.13
2023-04-09T13:57:48.112Z,38.45
2023-04-09T14:00:16.483Z,38.10
2023-04-09T14:02:45.034Z,39.04
2023-04-09T14:05:13.286Z,38.68
2023-04-09T14:07:42.754Z,38.77
2023-04-09T14:10:12.174Z,37.83
2023-04-09T14:12:40.343Z,38.38
2023-04-09T14:15:10.175Z,38.06
2023-04-09T14:17:38.773Z,38.28
2023-04-09T14:20:07.844Z,37.78
2023-04-09T14:22:36.370Z,36.52
2023-04-09T14:25:07.421Z,38.09
2023-04-09T14:27:35.811Z,37.59
2023-04-09T14:30:04.367Z,38.70
2023-04-09T14:32:32.735Z,38.39
2023-04-09T14:35:00.778Z,37.51
2023-04-09T14:37:29.269Z,37.33
2023-04-09T14:39:57.722Z,38.06
2023-04-09T14:42:27.182Z,37.81
2023-04-09T14:44:55.272Z,37.16
2023-04-09T14:47:23.652Z,37.40
2023-04-09T14:49:51.683Z,37.24
2023-04-09T14:52:19.744Z,36.50
2023-04-09T14:54:48.001Z,36.71
2023-04-09T14:57:16.131Z,37.02
2023-04-09T14:59:45.502Z,35.49
2023-04-09T15:02:14.128Z,36.34
2023-04-09T15:04:42.409Z,37.51
2023-04-09T15:07:11.675Z,37.61
2023-04-09T15:09:39.987Z,37.44
2023-04-09T15:12:08.927Z,37.74
2023-04-09T15:14:36.988Z,37.52
2023-04-09T15:17:06.627Z,37.72
2023-04-09T15:19:34.582Z,37.38
2023-04-09T15:22:02.651Z,37.24
2023-04-09T15:24:31.065Z,37.22
2023-04-09T15:26:59.087Z,36.93
2023-04-09T15:29:27.028Z,36.62
2023-04-09T15:31:55.450Z,36.62
2023-04-09T15:34:25.760Z,36.74
2023-04-09T15:36:53.930Z,36.75
2023-04-09T15:39:24.467Z,37.16
2023-04-09T15:41:52.538Z,36.80
2023-04-09T15:44:20.649Z,36.25
2023-04-09T15:46:49.016Z,35.62
2023-04-09T15:49:17.407Z,34.76
2023-04-09T15:51:46.808Z,34.72
2023-04-09T15:54:15.563Z,34.77
2023-04-09T15:56:43.584Z,34.71
2023-04-09T15:59:11.706Z,33.98
2023-04-09T16:01:40.595Z,33.95
2023-04-09T16:04:09.409Z,33.74
2023-04-09T16:06:38.750Z,33.27
2023-04-09T16:09:08.260Z,33.22
2023-04-09T16:11:37.561Z,33.21
2023-04-09T16:14:05.530Z,33.39
2023-04-09T16:16:33.694Z,33.74
2023-04-09T16:19:02.123Z,33.00
2023-04-09T16:21:30.141Z,32.86
2023-04-09T16:23:58.117Z,33.05
2023-04-09T16:26:27.823Z,33.21
2023-04-09T16:28:56.033Z,32.89
2023-04-09T16:31:24.288Z,33.21
2023-04-09T16:33:52.577Z,32.49
2023-04-09T16:36:20.834Z,32.50
2023-04-09T16:38:49.323Z,32.99
2023-04-09T16:41:17.615Z,33.32
2023-04-09T16:43:50.508Z,33.10
2023-04-09T16:46:19.195Z,33.13
2023-04-09T16:48:47.317Z,34.02
2023-04-09T16:51:15.497Z,34.34
2023-04-09T16:53:43.787Z,34.54
2023-04-09T16:56:11.893Z,34.66
2023-04-09T16:58:39.879Z,34.75
2023-04-09T17:01:09.605Z,34.86
2023-04-09T17:03:37.682Z,35.03
2023-04-09T17:06:06.137Z,35.59
2023-04-09T17:08:35.354Z,35.95
2023-04-09T17:11:03.626Z,36.75
2023-04-09T17:13:35.129Z,36.96
2023-04-09T17:16:05.237Z,37.23
2023-04-09T17:18:34.607Z,37.00
2023-04-09T17:21:02.946Z,36.95
2023-04-09T17:23:31.328Z,37.23
2023-04-09T17:26:00.718Z,37.63
2023-04-09T17:28:28.671Z,37.87
2023-04-09T17:30:56.980Z,38.02
2023-04-09T17:33:25.000Z,38.34
2023-04-09T17:35:54.447Z,38.29
2023-04-09T17:38:25.081Z,38.44
2023-04-09T17:40:54.372Z,38.55
2023-04-09T17:43:22.758Z,38.31
2023-04-09T17:45:51.254Z,38.33
2023-04-09T17:48:19.319Z,38.39
2023-04-09T17:50:47.728Z,38.51
2023-04-09T17:53:17.558Z,38.46
2023-04-09T17:55:50.760Z,38.54
2023-04-09T17:58:19.075Z,39.08
2023-04-09T18:00:47.456Z,39.21
2023-04-09T18:03:16.531Z,39.15
2023-04-09T18:05:44.799Z,39.08
2023-04-09T18:08:13.401Z,39.09
2023-04-09T18:10:43.322Z,39.37
2023-04-09T18:13:11.522Z,39.71
2023-04-09T18:15:39.571Z,40.04
2023-04-09T18:18:07.840Z,40.24
2023-04-09T18:20:35.764Z,40.72
2023-04-09T18:23:03.748Z,41.12
2023-04-09T18:25:32.042Z,41.31
2023-04-09T18:28:01.515Z,41.63
2023-04-09T18:30:29.554Z,41.61
2023-04-09T18:32:58.134Z,41.74
2023-04-09T18:35:26.271Z,41.82
2023-04-09T18:37:54.299Z,42.04
2023-04-09T18:40:22.490Z,42.67
2023-04-09T18:42:51.747Z,42.83
2023-04-09T18:45:21.525Z,43.00
2023-04-09T18:47:49.949Z,42.96
2023-04-09T18:50:18.946Z,43.12
2023-04-09T18:52:49.178Z,43.29
2023-04-09T18:55:18.295Z,43.27
2023-04-09T18:57:47.352Z,43.35
2023-04-09T19:00:16.506Z,43.39
2023-04-09T19:02:46.658Z,43.29
2023-04-09T19:05:14.754Z,43.38
2023-04-09T19:07:43.410Z,43.43
2023-04-09T19:10:11.793Z,43.54
2023-04-09T19:12:46.691Z,43.55
2023-04-09T19:15:15.061Z,43.56
2023-04-09T19:17:43.135Z,43.56
2023-04-09T19:20:13.559Z,43.47
2023-04-09T19:22:41.824Z,43.39
2023-04-09T19:25:10.793Z,43.37
2023-04-09T19:27:39.780Z,43.46
2023-04-09T19:30:09.086Z,43.53
2023-04-09T19:32:37.389Z,43.44
2023-04-09T19:35:06.954Z,43.50
2023-04-09T19:37:36.576Z,43.60
2023-04-09T19:40:07.419Z,43.58
2023-04-09T19:42:35.649Z,43.94
2023-04-09T19:45:03.625Z,44.15
2023-04-09T19:47:31.841Z,44.05
2023-04-09T19:50:00.041Z,44.16
2023-04-09T19:52:28.130Z,44.44
2023-04-09T19:54:57.874Z,44.37
2023-04-09T19:57:27.127Z,44.38
2023-04-09T19:59:55.485Z,44.43
2023-04-09T20:02:23.817Z,44.53
2023-04-09T20:04:52.381Z,44.49
2023-04-09T20:07:20.379Z,44.36
2023-04-09T20:09:48.674Z,44.33
2023-04-09T20:12:20.964Z,44.24
2023-04-09T20:14:49.439Z,44.06
2023-04-09T20:17:19.854Z,44.04
2023-04-09T20:19:47.742Z,43.96
2023-04-09T20:22:16.229Z,43.99
2023-04-09T20:24:44.707Z,44.18
2023-04-09T20:27:12.744Z,44.31
2023-04-09T20:29:42.589Z,44.61
2023-04-09T20:32:10.939Z,44.52
2023-04-09T20:34:38.978Z,44.71
2023-04-09T20:37:07.014Z,45.17
2023-04-09T20:39:35.271Z,45.23
2023-04-09T20:42:03.235Z,45.31
2023-04-09T20:44:31.808Z,45.42
2023-04-09T20:47:04.038Z,45.51
2023-04-09T20:49:32.016Z,45.47
2023-04-09T20:52:00.657Z,45.55
2023-04-09T20:54:29.424Z,45.69
2023-04-09T20:56:57.826Z,45.71
2023-04-09T20:59:26.405Z,45.59
2023-04-09T21:01:55.499Z,45.85
2023-04-09T21:04:25.519Z,45.87
2023-04-09T21:06:53.508Z,45.88
2023-04-09T21:09:21.807Z,45.87
2023-04-09T21:11:49.777Z,45.90
2023-04-09T21:14:17.673Z,45.67
2023-04-09T21:16:46.020Z,45.91
2023-04-09T21:19:14.630Z,46.09
2023-04-09T21:21:43.956Z,46.19
2023-04-09T21:24:12.119Z,46.89
2023-04-09T21:26:51.106Z,46.41
2023-04-09T21:29:21.415Z,46.38
2023-04-09T21:31:49.694Z,46.27
2023-04-09T21:34:17.692Z,46.34
2023-04-09T21:36:47.756Z,46.38
2023-04-09T21:39:15.786Z,46.43
2023-04-09T21:41:43.853Z,46.65
2023-04-09T21:44:12.200Z,46.53
2023-04-09T21:46:41.769Z,46.58
2023-04-09T21:49:09.883Z,46.60
2023-04-09T21:51:38.111Z,46.81
2023-04-09T21:54:09.418Z,46.92
2023-04-09T21:56:38.223Z,46.94
2023-04-09T21:59:06.245Z,46.99
2023-04-09T22:01:35.384Z,47.29
2023-04-09T22:04:04.143Z,46.79
2023-04-09T22:06:32.920Z,47.06
2023-04-09T22:09:03.399Z,47.53
2023-04-09T22:11:34.410Z,48.06
2023-04-09T22:14:02.416Z,47.78
2023-04-09T22:16:30.545Z,47.47
2023-04-09T22:18:58.831Z,47.31
2023-04-09T22:21:27.704Z,47.40
2023-04-09T22:23:55.965Z,47.22
2023-04-09T22:26:24.365Z,47.31
2023-04-09T22:28:54.016Z,47.09
2023-04-09T22:31:22.897Z,47.21
2023-04-09T22:33:51.255Z,47.31
2023-04-09T22:36:22.499Z,47.40
2023-04-09T22:38:51.778Z,47.70
2023-04-09T22:41:20.245Z,47.75
2023-04-09T22:43:48.615Z,47.45
2023-04-09T22:46:18.147Z,47.57
2023-04-09T22:48:46.692Z,47.82
2023-04-09T22:51:15.547Z,48.00
2023-04-09T22:53:43.732Z,48.63
2023-04-09T22:56:12.767Z,48.76
2023-04-09T22:58:41.127Z,48.38
2023-04-09T23:01:10.306Z,47.81
2023-04-09T23:03:41.034Z,48.39
2023-04-09T23:06:09.179Z,48.78
2023-04-09T23:08:38.787Z,48.40
2023-04-09T23:11:08.505Z,48.23
2023-04-09T23:13:36.490Z,48.18
2023-04-09T23:16:05.855Z,47.93
2023-04-09T23:18:34.734Z,48.13
2023-04-09T23:21:06.266Z,47.99
2023-04-09T23:23:34.630Z,48.41
2023-04-09T23:26:02.958Z,48.36
2023-04-09T23:28:31.435Z,48.51
2023-04-09T23:30:59.835Z,48.00
2023-04-09T23:33:27.969Z,48.48
2023-04-09T23:35:55.970Z,48.29
2023-04-09T23:38:25.538Z,48.19
2023-04-09T23:40:53.508Z,48.19
2023-04-09T23:43:21.467Z,48.27
2023-04-09T23:45:50.688Z,48.59
2023-04-09T23:48:18.810Z,48.40
2023-04-09T23:50:47.803Z,48.99
2023-04-09T23:53:16.274Z,49.47
2023-04-09T23:55:47.779Z,50.05
2023-04-09T23:58:16.080Z,49.16
